createdAt,value
2023-09-08T00:01:19.309Z,83.43
2023-09-08T00:05:18.288Z,83.44
2023-09-08T00:09:18.276Z,83.48
2023-09-08T00:13:16.354Z,83.57
2023-09-08T00:17:14.285Z,83.59
2023-09-08T00:21:12.278Z,83.61
2023-09-08T00:25:10.274Z,83.86
2023-09-08T00:29:08.321Z,84.09
2023-09-08T00:33:06.320Z,84.08
2023-09-08T00:37:04.232Z,84.04
2023-09-08T00:41:02.329Z,84.24
2023-09-08T00:45:00.310Z,84.30
2023-09-08T00:48:58.224Z,84.34
2023-09-08T00:52:56.310Z,84.49
2023-09-08T00:56:54.221Z,84.75
2023-09-08T01:00:52.267Z,84.76
2023-09-08T01:04:50.334Z,84.73
2023-09-08T01:08:48.277Z,84.62
2023-09-08T01:12:46.215Z,84.44
2023-09-08T01:16:45.292Z,84.47
2023-09-08T01:21:05.225Z,84.54
2023-09-08T01:25:21.226Z,84.41
2023-09-08T01:29:21.236Z,84.02
2023-09-08T01:33:19.215Z,84.02
2023-09-08T01:37:17.213Z,84.09
2023-09-08T01:41:15.239Z,83.92
2023-09-08T01:45:13.242Z,83.62
2023-09-08T01:49:11.286Z,83.36
2023-09-08T01:53:09.175Z,83.61
2023-09-08T01:57:07.276Z,84.22
2023-09-08T02:01:13.195Z,84.37
2023-09-08T02:05:11.312Z,84.27
2023-09-08T02:09:09.192Z,84.00
2023-09-08T02:13:08.173Z,84.15
2023-09-08T02:17:06.167Z,83.98
2023-09-08T02:21:04.289Z,83.98
2023-09-08T02:25:02.120Z,84.27
2023-09-08T02:29:00.174Z,84.05
2023-09-08T02:32:58.209Z,83.97
2023-09-08T02:36:58.157Z,84.12
2023-09-08T02:40:56.145Z,84.17
2023-09-08T02:44:54.125Z,84.23
2023-09-08T02:49:24.215Z,84.77
2023-09-08T02:53:22.194Z,84.54
2023-09-08T02:57:20.116Z,84.46
2023-09-08T03:01:30.223Z,85.12
2023-09-08T03:05:30.530Z,85.11
2023-09-08T03:09:28.094Z,85.10
2023-09-08T03:13:26.088Z,84.83
2023-09-08T03:17:24.196Z,84.85
2023-09-08T03:21:22.099Z,85.02
2023-09-08T03:25:20.087Z,85.28
2023-09-08T03:29:18.068Z,85.23
2023-09-08T03:33:16.310Z,85.86
2023-09-08T03:37:14.102Z,86.35
2023-09-08T03:41:14.119Z,87.13
2023-09-08T03:45:12.049Z,87.90
2023-09-08T03:49:10.062Z,88.01
2023-09-08T03:53:08.090Z,88.11
2023-09-08T03:57:06.077Z,88.12
2023-09-08T04:01:04.082Z,88.13
2023-09-08T04:05:02.123Z,88.01
2023-09-08T04:09:00.117Z,87.98
2023-09-08T04:12:58.054Z,87.95
2023-09-08T04:16:56.012Z,87.94
2023-09-08T04:20:54.137Z,87.89
2023-09-08T04:24:51.979Z,87.85
2023-09-08T04:28:50.059Z,87.72
2023-09-08T04:32:48.033Z,86.97
2023-09-08T04:36:46.044Z,86.38
2023-09-08T04:40:44.077Z,86.02
2023-09-08T04:44:42.015Z,85.64
2023-09-08T04:48:41.032Z,85.27
2023-09-08T04:52:39.044Z,85.12
2023-09-08T04:56:37.085Z,84.80
2023-09-08T05:00:34.979Z,84.29
2023-09-08T05:04:34.009Z,83.30
2023-09-08T05:08:32.076Z,82.73
2023-09-08T05:12:29.959Z,82.31
2023-09-08T05:16:34.001Z,81.72
2023-09-08T05:20:33.962Z,81.36
2023-09-08T05:24:32.990Z,80.30
2023-09-08T05:28:31.122Z,79.58
2023-09-08T05:32:29.092Z,79.40
2023-09-08T05:36:26.933Z,78.87
2023-09-08T05:40:25.038Z,78.50
2023-09-08T05:44:23.036Z,78.09
2023-09-08T05:48:20.966Z,77.48
2023-09-08T05:52:19.076Z,76.87
2023-09-08T05:56:16.997Z,76.33
2023-09-08T05:59:54.689Z,76.66
2023-09-08T06:03:19.128Z,76.56
2023-09-08T06:06:43.535Z,75.91
2023-09-08T06:10:07.910Z,75.84
2023-09-08T06:13:31.966Z,75.88
2023-09-08T06:16:56.097Z,75.95
2023-09-08T06:20:20.313Z,75.54
2023-09-08T06:23:44.647Z,74.81
2023-09-08T06:27:10.533Z,75.00
2023-09-08T06:30:34.469Z,74.54
2023-09-08T06:33:59.490Z,73.82
2023-09-08T06:37:24.066Z,73.44
2023-09-08T06:40:50.722Z,72.91
2023-09-08T06:44:14.745Z,72.14
2023-09-08T06:47:38.967Z,72.41
2023-09-08T06:51:03.212Z,72.37
2023-09-08T06:54:27.320Z,72.32
2023-09-08T06:57:51.296Z,71.91
2023-09-08T07:01:15.435Z,71.20
2023-09-08T07:04:39.715Z,70.29
2023-09-08T07:08:04.301Z,69.49
2023-09-08T07:11:28.613Z,68.44
2023-09-08T07:14:52.573Z,68.85
2023-09-08T07:18:16.634Z,69.34
2023-09-08T07:21:41.036Z,68.83
2023-09-08T07:25:05.361Z,67.22
2023-09-08T07:28:29.978Z,66.03
2023-09-08T07:31:55.708Z,66.24
2023-09-08T07:35:21.399Z,66.32
2023-09-08T07:38:45.525Z,66.31
2023-09-08T07:42:10.075Z,66.31
2023-09-08T07:45:34.278Z,65.21
2023-09-08T07:49:00.868Z,62.98
2023-09-08T07:52:24.903Z,62.37
2023-09-08T07:55:48.775Z,62.44
2023-09-08T07:59:12.774Z,62.44
2023-09-08T08:02:36.617Z,63.51
2023-09-08T08:06:00.580Z,63.46
2023-09-08T08:09:24.499Z,62.66
2023-09-08T08:12:48.715Z,60.31
2023-09-08T08:16:13.438Z,57.42
2023-09-08T08:19:37.374Z,56.84
2023-09-08T08:23:01.470Z,58.09
2023-09-08T08:26:28.768Z,55.91
2023-09-08T08:29:53.094Z,55.60
2023-09-08T08:33:17.018Z,55.59
2023-09-08T08:36:40.952Z,57.59
2023-09-08T08:40:05.308Z,54.39
2023-09-08T08:43:30.445Z,53.52
2023-09-08T08:46:56.607Z,54.34
2023-09-08T08:50:21.679Z,54.60
2023-09-08T08:53:45.629Z,54.67
2023-09-08T08:57:09.953Z,55.34
2023-09-08T09:00:38.171Z,54.14
2023-09-08T09:04:02.377Z,53.58
2023-09-08T09:07:26.855Z,54.37
2023-09-08T09:10:50.715Z,55.53
2023-09-08T09:14:14.648Z,55.04
2023-09-08T09:17:38.701Z,53.49
2023-09-08T09:21:04.019Z,52.65
2023-09-08T09:24:39.736Z,53.95
2023-09-08T09:28:05.091Z,53.72
2023-09-08T09:31:28.967Z,50.56
2023-09-08T09:34:55.014Z,51.81
2023-09-08T09:38:19.697Z,52.07
2023-09-08T09:41:43.875Z,51.79
2023-09-08T09:45:08.949Z,50.92
2023-09-08T09:48:33.097Z,51.47
2023-09-08T09:51:57.154Z,50.39
2023-09-08T09:55:21.942Z,49.83
2023-09-08T09:58:46.244Z,49.65
2023-09-08T10:02:15.546Z,49.97
2023-09-08T10:05:39.636Z,50.92
2023-09-08T10:09:06.862Z,50.94
2023-09-08T10:12:33.295Z,50.93
2023-09-08T10:16:01.074Z,51.25
2023-09-08T10:19:25.624Z,51.29
2023-09-08T10:23:12.270Z,51.18
2023-09-08T10:26:37.937Z,51.15
2023-09-08T10:30:08.868Z,51.26
2023-09-08T10:33:33.849Z,49.79
2023-09-08T10:36:58.231Z,48.11
2023-09-08T10:40:28.529Z,49.03
2023-09-08T10:44:01.522Z,48.00
2023-09-08T10:47:28.126Z,47.32
2023-09-08T10:50:51.971Z,46.65
2023-09-08T10:54:45.370Z,46.85
2023-09-08T10:58:11.743Z,47.03
2023-09-08T11:01:37.604Z,46.77
2023-09-08T11:05:01.546Z,46.98
2023-09-08T11:08:27.264Z,47.87
2023-09-08T11:11:52.768Z,48.93
2023-09-08T11:15:16.622Z,48.93
2023-09-08T11:18:42.015Z,49.46
2023-09-08T11:22:06.059Z,49.35
2023-09-08T11:25:30.731Z,49.61
2023-09-08T11:28:54.827Z,48.85
2023-09-08T11:32:18.796Z,48.50
2023-09-08T11:35:44.629Z,48.70
2023-09-08T11:39:09.280Z,47.38
2023-09-08T11:42:33.183Z,47.38
2023-09-08T11:45:58.059Z,47.33
2023-09-08T11:49:24.031Z,47.13
2023-09-08T11:52:52.654Z,43.92
2023-09-08T11:56:16.919Z,43.28
2023-09-08T11:59:41.385Z,42.05
2023-09-08T12:03:12.253Z,42.24
2023-09-08T12:06:36.286Z,43.21
2023-09-08T12:10:00.532Z,42.74
2023-09-08T12:13:25.583Z,43.03
2023-09-08T12:16:49.486Z,43.57
2023-09-08T12:20:17.589Z,43.95
2023-09-08T12:23:52.377Z,44.24
2023-09-08T12:27:16.733Z,44.28
2023-09-08T12:30:41.076Z,44.80
2023-09-08T12:34:04.965Z,44.49
2023-09-08T12:37:30.233Z,44.73
2023-09-08T12:40:54.144Z,45.47
2023-09-08T12:44:18.165Z,45.94
2023-09-08T12:47:44.326Z,46.23
2023-09-08T12:51:08.249Z,46.50
2023-09-08T12:54:32.220Z,47.24
2023-09-08T12:57:56.671Z,46.42
2023-09-08T13:01:20.573Z,46.68
2023-09-08T13:04:49.521Z,46.81
2023-09-08T13:08:16.395Z,47.49
2023-09-08T13:11:40.323Z,46.82
2023-09-08T13:15:04.442Z,46.42
2023-09-08T13:18:28.509Z,47.33
2023-09-08T13:21:52.546Z,46.88
2023-09-08T13:25:16.426Z,45.47
2023-09-08T13:28:40.325Z,45.92
2023-09-08T13:32:24.614Z,43.74
2023-09-08T13:36:22.613Z,42.64
2023-09-08T13:40:20.630Z,44.03
2023-09-08T13:44:18.624Z,43.05
2023-09-08T13:48:17.124Z,44.00
2023-09-08T13:52:18.878Z,44.28
2023-09-08T13:56:20.537Z,44.75
2023-09-08T14:00:23.741Z,45.35
2023-09-08T14:08:28.436Z,45.81
2023-09-08T14:12:33.987Z,46.12
2023-09-08T14:16:34.598Z,46.25
2023-09-08T14:20:32.835Z,45.17
2023-09-08T14:24:30.673Z,45.06
2023-09-08T14:28:28.485Z,44.89
2023-09-08T14:32:26.537Z,44.74
2023-09-08T14:36:24.483Z,44.92
2023-09-08T14:40:22.527Z,44.58
2023-09-08T14:44:23.536Z,44.79
2023-09-08T14:48:21.718Z,44.69
2023-09-08T14:52:19.550Z,44.73
2023-09-08T14:56:17.480Z,44.59
2023-09-08T15:00:15.671Z,44.17
2023-09-08T15:04:13.633Z,43.72
2023-09-08T15:08:11.511Z,43.61
2023-09-08T15:12:09.498Z,43.61
2023-09-08T15:16:07.534Z,44.14
2023-09-08T15:20:06.561Z,43.28
2023-09-08T15:24:04.499Z,43.42
2023-09-08T15:28:02.487Z,43.47
2023-09-08T15:32:00.500Z,43.75
2023-09-08T15:35:58.539Z,44.26
2023-09-08T15:39:56.453Z,45.11
2023-09-08T15:43:55.513Z,46.25
2023-09-08T15:47:53.498Z,47.51
2023-09-08T15:52:04.367Z,47.49
2023-09-08T15:56:11.511Z,47.66
2023-09-08T16:00:09.514Z,47.82
2023-09-08T16:04:08.936Z,47.68
2023-09-08T16:08:06.419Z,48.44
2023-09-08T16:12:04.425Z,48.79
2023-09-08T16:16:02.491Z,48.88
2023-09-08T16:20:00.445Z,49.46
2023-09-08T16:23:58.497Z,50.23
2023-09-08T16:27:56.429Z,50.87
2023-09-08T16:31:54.604Z,51.46
2023-09-08T16:35:52.433Z,51.70
2023-09-08T16:39:50.441Z,51.72
2023-09-08T16:43:48.442Z,52.70
2023-09-08T16:47:46.558Z,52.81
2023-09-08T16:51:44.478Z,53.19
2023-09-08T16:55:42.440Z,53.46
2023-09-08T16:59:40.439Z,53.55
2023-09-08T17:03:38.838Z,53.71
2023-09-08T17:07:37.408Z,54.80
2023-09-08T17:11:35.679Z,56.15
2023-09-08T17:15:33.363Z,56.65
2023-09-08T17:19:31.384Z,57.21
2023-09-08T17:23:34.195Z,57.46
2023-09-08T17:27:32.550Z,57.80
2023-09-08T17:31:30.371Z,58.12
2023-09-08T17:35:28.402Z,58.61
2023-09-08T17:39:26.380Z,59.66
2023-09-08T17:43:24.370Z,61.39
2023-09-08T17:47:22.329Z,62.93
2023-09-08T17:51:20.525Z,64.02
2023-09-08T17:55:18.324Z,63.88
2023-09-08T17:59:16.381Z,64.31
2023-09-08T18:03:16.261Z,65.00
2023-09-08T18:07:15.528Z,65.28
2023-09-08T18:11:17.328Z,65.61
2023-09-08T18:15:15.370Z,66.14
2023-09-08T18:19:13.633Z,66.66
2023-09-08T18:23:11.330Z,66.90
2023-09-08T18:27:09.316Z,67.47
2023-09-08T18:31:07.371Z,68.10
2023-09-08T18:35:05.378Z,70.84
2023-09-08T18:39:03.318Z,71.09
2023-09-08T18:43:01.248Z,70.30
2023-09-08T18:46:59.392Z,70.86
2023-09-08T18:50:57.305Z,70.99
2023-09-08T18:54:55.382Z,71.22
2023-09-08T18:58:53.259Z,71.88
2023-09-08T19:02:51.519Z,71.91
2023-09-08T19:06:50.267Z,72.18
2023-09-08T19:10:48.311Z,73.84
2023-09-08T19:14:46.301Z,74.97
2023-09-08T19:18:44.321Z,74.42
2023-09-08T19:22:42.268Z,74.48
2023-09-08T19:26:40.277Z,74.74
2023-09-08T19:30:38.253Z,74.59
2023-09-08T19:34:36.281Z,74.43
2023-09-08T19:38:34.251Z,74.91
2023-09-08T19:42:32.293Z,75.70
2023-09-08T19:46:30.268Z,75.73
2023-09-08T19:50:28.324Z,75.69
2023-09-08T19:54:26.221Z,75.73
2023-09-08T19:58:24.356Z,75.36
2023-09-08T20:02:23.228Z,75.45
2023-09-08T20:06:21.260Z,75.46
2023-09-08T20:10:19.255Z,75.46
2023-09-08T20:14:17.229Z,75.71
2023-09-08T20:18:15.286Z,75.54
2023-09-08T20:22:13.212Z,75.61
2023-09-08T20:26:11.210Z,76.08
2023-09-08T20:30:09.236Z,76.28
2023-09-08T20:34:07.199Z,76.72
2023-09-08T20:38:05.317Z,76.99
2023-09-08T20:42:03.211Z,77.08
2023-09-08T20:46:09.299Z,77.01
2023-09-08T20:50:07.208Z,76.94
2023-09-08T20:54:05.210Z,77.28
2023-09-08T20:58:03.157Z,77.44
2023-09-08T21:02:04.148Z,77.56
2023-09-08T21:06:02.188Z,77.76
2023-09-08T21:10:00.285Z,77.81
2023-09-08T21:13:58.110Z,77.52
2023-09-08T21:17:56.198Z,78.14
2023-09-08T21:21:54.214Z,78.62
2023-09-08T21:25:52.199Z,78.76
2023-09-08T21:29:50.165Z,78.93
2023-09-08T21:33:51.012Z,79.40
2023-09-08T21:37:49.106Z,79.19
2023-09-08T21:41:47.142Z,79.28
2023-09-08T21:45:45.138Z,79.21
2023-09-08T21:49:43.216Z,79.28
2023-09-08T21:53:41.137Z,79.19
2023-09-08T21:57:40.099Z,79.18
2023-09-08T22:01:38.125Z,79.88
2023-09-08T22:05:36.151Z,80.20
2023-09-08T22:09:41.063Z,80.19
2023-09-08T22:13:39.130Z,80.43
2023-09-08T22:17:37.111Z,80.76
2023-09-08T22:21:35.105Z,80.66
2023-09-08T22:25:33.065Z,80.90
2023-09-08T22:29:31.100Z,80.98
2023-09-08T22:33:29.179Z,81.09
2023-09-08T22:37:27.095Z,81.01
2023-09-08T22:41:25.019Z,81.23
2023-09-08T22:45:23.098Z,81.23
2023-09-08T22:49:42.073Z,81.10
2023-09-08T22:53:40.247Z,81.13
2023-09-08T22:57:38.065Z,81.35
2023-09-08T23:01:36.140Z,81.66
2023-09-08T23:05:34.031Z,81.78
2023-09-08T23:09:32.079Z,82.27
2023-09-08T23:13:30.044Z,82.00
2023-09-08T23:17:28.141Z,81.81
2023-09-08T23:21:26.064Z,81.87
2023-09-08T23:25:24.050Z,81.87
2023-09-08T23:29:22.061Z,82.13
2023-09-08T23:33:20.100Z,82.72
2023-09-08T23:37:18.019Z,82.93
2023-09-08T23:41:16.066Z,82.95
2023-09-08T23:45:13.982Z,82.75
2023-09-08T23:49:12.008Z,82.78
2023-09-08T23:53:09.991Z,82.47
2023-09-08T23:57:12.102Z,82.41
